Time;durP1;ratioP1;P1;durP2;ratioP2;P2;SDS_P1;SDS_P2;PMS_P1;PMS_P2;Temp;Humidity;BMP_temperature;BMP_pressure;BME280_temperature;BME280_humidity;BME280_pressure;Samples;Min_cycle;Max_cycle;Signal;HPM_P1;HPM_P2
2022/01/20 00:03:34;;;;;;;35.70;17.90;;;;;;;-0.94;66.26;98761.91;106157;1274;99452;-71
2022/01/20 00:28:17;;;;;;;32.20;13.70;;;;;;;-1.02;66.60;98767.71;106119;1274;107906;-73
2022/01/20 00:31:03;;;;;;;38.10;17.80;;;;;;;-1.03;66.54;98767.73;106097;1274;99275;-73
2022/01/20 00:33:48;;;;;;;35.50;17.40;;;;;;;-1.05;66.61;98771.48;106191;1273;96665;-73
2022/01/20 00:38:44;;;;;;;37.40;17.70;;;;;;;-1.09;66.40;98770.70;106177;1274;100001;-72
2022/01/20 00:41:15;;;;;;;37.00;17.50;;;;;;;-1.11;66.48;98765.54;106205;1273;107609;-74
2022/01/20 00:43:45;;;;;;;36.50;16.40;;;;;;;-1.11;66.37;98761.72;106033;1274;99305;-73
2022/01/20 00:46:14;;;;;;;36.50;17.70;;;;;;;-1.13;66.34;98761.24;106631;1272;96860;-72
2022/01/20 00:48:48;;;;;;;35.60;18.00;;;;;;;-1.14;66.38;98760.39;106238;1274;112735;-72
2022/01/20 00:51:15;;;;;;;39.40;17.50;;;;;;;-1.16;66.46;98763.25;106253;1274;99185;-73
2022/01/20 00:53:44;;;;;;;35.80;17.10;;;;;;;-1.16;66.60;98759.95;106196;1274;108603;-73
2022/01/20 00:56:14;;;;;;;32.10;15.60;;;;;;;-1.17;66.66;98759.27;106165;1274;97305;-73
2022/01/20 00:58:42;;;;;;;36.90;17.00;;;;;;;-1.16;66.57;98753.33;106000;1274;99226;-71
2022/01/20 01:01:10;;;;;;;36.20;15.50;;;;;;;-1.16;66.63;98740.64;105934;1274;112778;-72
2022/01/20 01:03:39;;;;;;;37.30;17.20;;;;;;;-1.17;66.68;98740.12;107198;1274;98024;-72
2022/01/20 01:06:34;;;;;;;38.20;17.60;;;;;;;-1.15;66.64;98736.42;105938;1274;107772;-72
2022/01/20 01:09:06;;;;;;;36.60;16.60;;;;;;;-1.14;66.56;98729.63;106041;1274;97670;-72
2022/01/20 01:11:35;;;;;;;36.20;16.20;;;;;;;-1.13;66.69;98728.89;107999;1273;97025;-72
2022/01/20 01:14:06;;;;;;;34.60;17.00;;;;;;;-1.12;66.66;98722.40;106573;1272;112426;-72
2022/01/20 01:22:21;;;;;;;34.40;15.20;;;;;;;-1.09;66.72;98711.20;106059;1274;99207;-72
2022/01/20 01:24:56;;;;;;;36.80;17.20;;;;;;;-1.10;66.87;98707.39;106136;1274;99284;-72
2022/01/20 01:27:29;;;;;;;39.90;17.70;;;;;;;-1.10;66.86;98705.30;106098;1273;112785;-69
2022/01/20 01:32:48;;;;;;;36.20;16.60;;;;;;;-1.10;66.87;98695.56;106093;1274;107664;-70
2022/01/20 01:35:20;;;;;;;38.60;17.20;;;;;;;-1.10;66.88;98690.50;106092;1272;99256;-68
2022/01/20 01:40:38;;;;;;;35.30;16.80;;;;;;;-1.13;66.82;98692.33;106131;1273;112736;-67
2022/01/20 01:43:17;;;;;;;34.60;16.10;;;;;;;-1.13;66.93;98694.77;106044;1273;99719;-71
2022/01/20 01:45:45;;;;;;;38.70;17.00;;;;;;;-1.13;66.96;98692.52;106935;1274;107760;-73
2022/01/20 01:48:18;;;;;;;36.00;16.90;;;;;;;-1.12;67.01;98691.80;106100;1273;99205;-73
2022/01/20 01:50:46;;;;;;;36.20;17.40;;;;;;;-1.11;67.09;98695.59;106106;1274;99263;-73
2022/01/20 01:53:16;;;;;;;38.70;17.60;;;;;;;-1.10;66.97;98690.00;106139;1273;112813;-74
2022/01/20 01:55:49;;;;;;;39.20;17.60;;;;;;;-1.11;67.01;98690.17;106091;1274;96633;-71
2022/01/20 01:58:18;;;;;;;35.80;16.20;;;;;;;-1.10;66.99;98687.73;106117;1274;107756;-72
2022/01/20 02:00:46;;;;;;;38.70;17.50;;;;;;;-1.11;66.96;98686.02;106214;1273;96647;-74
2022/01/20 02:03:18;;;;;;;42.10;18.20;;;;;;;-1.11;67.20;98687.93;106131;1273;99803;-74
2022/01/20 02:08:36;;;;;;;39.40;16.20;;;;;;;-1.12;67.07;98675.42;106056;1272;99224;-74
2022/01/20 02:19:27;;;;;;;41.80;19.70;;;;;;;-1.17;67.44;98675.42;106224;1274;112706;-71
2022/01/20 02:22:04;;;;;;;41.10;18.10;;;;;;;-1.18;67.69;98670.38;106114;1274;99265;-72
2022/01/20 02:24:31;;;;;;;;;;;;;;;-1.18;67.40;98664.29;106111;1274;107790;-74
2022/01/20 02:27:02;;;;;;;45.60;21.70;;;;;;;-1.20;67.59;98671.85;106112;1274;99869;-71
2022/01/20 02:29:30;;;;;;;44.30;20.10;;;;;;;-1.19;67.75;98670.06;106230;1274;99192;-76
2022/01/20 02:32:01;;;;;;;40.00;20.10;;;;;;;-1.17;67.93;98660.97;106128;1274;112734;-74
2022/01/20 02:34:32;;;;;;;44.20;20.90;;;;;;;-1.16;68.16;98662.68;106047;1273;99165;-73
2022/01/20 02:37:09;;;;;;;41.30;20.70;;;;;;;-1.14;67.82;98665.75;106130;1274;107766;-74
2022/01/20 02:44:57;;;;;;;61.80;20.60;;;;;;;-1.07;68.06;98655.60;106207;1274;112753;-72
2022/01/20 02:47:31;;;;;;;42.70;20.50;;;;;;;-1.06;68.17;98651.77;106217;1272;99221;-71
2022/01/20 02:50:02;;;;;;;39.50;18.40;;;;;;;-1.07;68.23;98650.38;106255;1274;106049;-72
2022/01/20 02:52:30;;;;;;;44.40;21.20;;;;;;;-1.06;68.31;98640.58;106267;1274;96619;-71
2022/01/20 02:54:57;;;;;;;42.20;19.80;;;;;;;-1.05;68.36;98631.86;106292;1274;100032;-72
2022/01/20 02:57:25;;;;;;;42.80;21.30;;;;;;;-1.06;68.46;98625.80;106223;1273;112732;-75
2022/01/20 02:59:53;;;;;;;40.70;18.80;;;;;;;-1.06;68.43;98616.08;106281;1272;99321;-74
2022/01/20 03:02:21;;;;;;;41.80;19.60;;;;;;;-1.03;68.85;98606.39;106234;1274;106701;-73
2022/01/20 03:04:49;;;;;;;47.30;20.30;;;;;;;-1.05;68.84;98602.10;106286;1273;99234;-74
2022/01/20 03:07:17;;;;;;;42.20;20.30;;;;;;;-1.06;69.11;98607.36;106146;1275;99256;-74
2022/01/20 03:09:48;;;;;;;40.90;17.00;;;;;;;-1.10;69.02;98602.95;106290;1274;113257;-71
2022/01/20 03:12:16;;;;;;;44.20;20.40;;;;;;;-1.08;68.93;98597.84;106224;1272;99134;-73
2022/01/20 03:14:43;;;;;;;38.80;18.30;;;;;;;-1.07;69.15;98595.55;106228;1274;107737;-73
2022/01/20 03:17:13;;;;;;;46.70;20.70;;;;;;;-1.05;69.30;98596.71;106249;1274;99348;-74
2022/01/20 03:19:44;;;;;;;40.30;19.40;;;;;;;-1.06;69.38;98594.48;106205;1273;99284;-72
2022/01/20 03:22:11;;;;;;;40.20;17.90;;;;;;;-1.06;69.53;98590.65;106231;1274;111743;-73
2022/01/20 03:24:39;;;;;;;43.90;19.40;;;;;;;-1.04;69.58;98581.90;106252;1274;99337;-72
2022/01/20 03:27:10;;;;;;;42.40;19.80;;;;;;;-1.05;69.45;98581.92;106185;1274;107760;-72
2022/01/20 03:29:37;;;;;;;40.60;18.50;;;;;;;-1.04;69.62;98577.20;106192;1273;99199;-72
2022/01/20 03:32:05;;;;;;;37.90;16.50;;;;;;;-1.03;69.85;98566.73;106079;1274;292906;-73
2022/01/20 03:34:33;;;;;;;40.70;17.70;;;;;;;-1.01;70.22;98566.15;106265;1274;112724;-72
2022/01/20 03:37:05;;;;;;;42.10;20.20;;;;;;;-1.02;69.97;98564.44;106254;1273;99294;-72
2022/01/20 03:39:35;;;;;;;41.20;18.80;;;;;;;-1.03;69.92;98563.06;106257;1274;107625;-71
2022/01/20 03:42:06;;;;;;;41.50;18.80;;;;;;;-1.00;69.87;98559.14;106234;1274;99290;-73
2022/01/20 03:44:34;;;;;;;39.50;18.10;;;;;;;-0.98;69.95;98557.34;106275;1274;96622;-73
2022/01/20 03:47:09;;;;;;;44.30;20.40;;;;;;;-0.95;70.18;98543.30;106225;1274;112942;-73
2022/01/20 03:49:52;;;;;;;41.20;17.70;;;;;;;-0.96;70.20;98527.32;106266;1274;99447;-73
2022/01/20 03:52:22;;;;;;;45.80;19.50;;;;;;;-0.95;70.32;98517.73;106243;1274;108808;-72
2022/01/20 03:54:49;;;;;;;44.40;20.00;;;;;;;-0.95;70.30;98511.63;106250;1274;99297;-72
2022/01/20 03:57:21;;;;;;;44.00;19.50;;;;;;;-0.92;70.35;98493.95;106195;1274;97650;-74
2022/01/20 03:59:49;;;;;;;42.20;19.00;;;;;;;-0.91;70.42;98498.43;106136;1274;112743;-74
2022/01/20 04:02:17;;;;;;;39.10;18.70;;;;;;;-0.90;70.35;98498.58;106271;1273;99971;-74
2022/01/20 04:04:46;;;;;;;43.10;19.60;;;;;;;-0.90;70.46;98493.34;106223;1274;107799;-74
2022/01/20 04:07:14;;;;;;;37.90;17.50;;;;;;;-0.87;70.43;98501.42;106234;1274;99291;-73
2022/01/20 04:09:44;;;;;;;41.40;20.00;;;;;;;-0.86;70.49;98493.05;106250;1274;99300;-72
2022/01/20 04:12:14;;;;;;;39.90;17.60;;;;;;;-0.86;70.88;98479.11;106200;1274;112849;-73
2022/01/20 04:14:47;;;;;;;41.10;21.20;;;;;;;-0.86;70.60;98484.16;106281;1273;99221;-74
2022/01/20 04:17:20;;;;;;;42.90;19.30;;;;;;;-0.86;70.69;98483.10;106246;1274;108253;-73
2022/01/20 04:19:51;;;;;;;46.00;21.30;;;;;;;-0.84;71.01;98478.72;106248;1274;99204;-73
2022/01/20 04:22:18;;;;;;;44.80;18.50;;;;;;;-0.83;70.84;98475.90;106256;1274;99427;-74
2022/01/20 04:24:51;;;;;;;43.00;19.90;;;;;;;-0.86;70.75;98475.65;106244;1270;112746;-74
2022/01/20 04:27:19;;;;;;;39.90;17.20;;;;;;;-0.86;70.84;98466.41;106257;1273;99427;-75
2022/01/20 04:29:46;;;;;;;43.10;20.60;;;;;;;-0.85;71.12;98466.20;106232;1274;107607;-72
2022/01/20 04:32:15;;;;;;;41.80;18.50;;;;;;;-0.84;71.03;98461.30;106412;1273;97662;-73
2022/01/20 04:34:45;;;;;;;37.50;19.30;;;;;;;-0.83;71.49;98459.88;106144;1274;99191;-74
2022/01/20 04:37:14;;;;;;;47.00;21.80;;;;;;;-0.85;71.25;98449.48;106029;1274;112782;-74
2022/01/20 04:39:47;;;;;;;42.10;18.30;;;;;;;-0.84;71.48;98444.94;107958;1273;97343;-75
2022/01/20 04:42:20;;;;;;;39.30;17.40;;;;;;;-0.85;71.55;98434.16;106389;1273;107775;-74
2022/01/20 04:44:54;;;;;;;44.70;19.70;;;;;;;-0.83;71.92;98436.88;107799;1272;99232;-71
2022/01/20 04:47:33;;;;;;;43.70;21.10;;;;;;;-0.84;71.82;98425.95;106148;1274;96714;-72
2022/01/20 04:58:24;;;;;;;39.70;18.70;;;;;;;-0.77;71.76;98415.24;106161;1274;99194;-71
2022/01/20 05:00:52;;;;;;;42.10;19.70;;;;;;;-0.76;71.94;98404.75;106190;1274;99208;-72
2022/01/20 05:03:20;;;;;;;45.40;21.80;;;;;;;-0.76;71.79;98409.63;107142;1274;112790;-72
2022/01/20 05:05:53;;;;;;;43.90;20.40;;;;;;;-0.73;72.08;98416.14;106009;1274;97205;-72
2022/01/20 05:08:23;;;;;;;42.00;20.20;;;;;;;-0.72;71.79;98406.02;107852;1273;108197;-72
2022/01/20 05:10:52;;;;;;;46.40;21.00;;;;;;;-0.68;71.65;98408.47;107977;1272;97358;-73
2022/01/20 05:13:25;;;;;;;38.20;17.90;;;;;;;-0.65;71.83;98405.23;107839;1274;97042;-73
2022/01/20 05:15:53;;;;;;;41.30;19.70;;;;;;;-0.59;71.97;98392.27;106017;1274;112954;-75
2022/01/20 05:18:22;;;;;;;43.50;19.80;;;;;;;-0.57;71.85;98398.83;107971;1272;97334;-73
2022/01/20 05:20:50;;;;;;;42.30;20.80;;;;;;;-0.52;71.88;98397.08;106766;1274;107733;-73
2022/01/20 05:23:20;;;;;;;40.30;19.40;;;;;;;-0.48;71.80;98390.48;106234;1274;99297;-74
2022/01/20 05:25:51;;;;;;;47.10;21.60;;;;;;;-0.44;71.77;98391.89;106232;1274;99308;-74
2022/01/20 05:28:19;;;;;;;39.30;19.40;;;;;;;-0.41;71.63;98394.58;106228;1274;111551;-73
2022/01/20 05:30:50;;;;;;;40.40;20.30;;;;;;;-0.40;71.75;98396.95;106238;1274;99340;-72
2022/01/20 05:33:20;;;;;;;40.40;19.00;;;;;;;-0.36;71.72;98394.04;106244;1274;107648;-72
2022/01/20 05:35:51;;;;;;;35.50;17.60;;;;;;;-0.33;71.60;98386.77;106242;1274;99320;-73
2022/01/20 05:38:19;;;;;;;43.10;19.20;;;;;;;-0.30;71.57;98390.48;106270;1274;100000;-73
2022/01/20 05:40:46;;;;;;;43.70;20.40;;;;;;;-0.28;71.53;98387.83;106277;1274;112650;-72
2022/01/20 05:43:14;;;;;;;39.40;19.20;;;;;;;-0.27;71.59;98390.54;106274;1274;99229;-74
2022/01/20 05:45:42;;;;;;;42.20;19.10;;;;;;;-0.26;71.44;98390.68;106216;1274;105743;-75
2022/01/20 05:48:14;;;;;;;39.70;18.10;;;;;;;-0.26;71.71;98379.55;106222;1274;99326;-75
2022/01/20 05:50:47;;;;;;;39.00;17.20;;;;;;;-0.28;71.53;98377.00;106143;1274;99308;-75
2022/01/20 05:53:14;;;;;;;38.50;18.90;;;;;;;-0.28;71.52;98379.42;106080;1274;112807;-73
2022/01/20 05:55:45;;;;;;;39.30;18.10;;;;;;;-0.29;71.45;98377.39;106000;1275;99300;-73
2022/01/20 05:58:16;;;;;;;41.40;20.10;;;;;;;-0.31;71.45;98374.30;106093;1274;107690;-71
2022/01/20 06:00:47;;;;;;;37.60;19.90;;;;;;;-0.30;71.54;98372.88;106126;1274;99320;-73
2022/01/20 06:03:36;;;;;;;38.40;18.00;;;;;;;-0.30;71.44;98363.48;106182;1274;99325;-73
2022/01/20 06:06:11;;;;;;;38.20;18.10;;;;;;;-0.36;71.40;98362.13;106167;1274;112784;-73
2022/01/20 06:08:42;;;;;;;40.10;20.60;;;;;;;-0.38;71.35;98351.75;106195;1273;99104;-73
2022/01/20 06:11:10;;;;;;;41.30;19.40;;;;;;;-0.40;71.61;98351.84;106124;1274;107552;-73
2022/01/20 06:13:38;;;;;;;40.40;18.40;;;;;;;-0.43;71.42;98350.05;106147;1274;99286;-72
2022/01/20 06:16:10;;;;;;;43.90;19.20;;;;;;;-0.45;71.58;98354.31;106077;1273;97217;-72
2022/01/20 06:18:37;;;;;;;38.20;18.30;;;;;;;-0.47;71.44;98358.37;106126;1274;112697;-73
2022/01/20 06:21:05;;;;;;;40.10;19.50;;;;;;;-0.44;71.66;98357.95;106134;1274;97179;-74
2022/01/20 06:23:34;;;;;;;46.40;20.10;;;;;;;-0.46;71.75;98359.58;106128;1273;107655;-73
2022/01/20 06:26:05;;;;;;;44.60;21.30;;;;;;;-0.48;71.65;98364.86;106031;1273;97856;-74
2022/01/20 06:28:37;;;;;;;41.20;18.90;;;;;;;-0.48;71.44;98369.77;106064;1273;97712;-74
2022/01/20 06:31:05;;;;;;;43.60;20.90;;;;;;;-0.47;71.57;98363.79;106052;1274;112797;-74
2022/01/20 06:33:33;;;;;;;40.10;21.00;;;;;;;-0.48;71.86;98363.84;106141;1274;99290;-75
2022/01/20 06:36:01;;;;;;;43.30;21.60;;;;;;;-0.49;71.81;98359.69;106049;1274;108050;-74
2022/01/20 06:38:31;;;;;;;44.60;20.60;;;;;;;-0.50;71.97;98359.02;106045;1274;99288;-72
2022/01/20 06:40:59;;;;;;;41.50;21.50;;;;;;;-0.49;71.97;98354.46;106175;1274;99323;-72
2022/01/20 06:43:28;;;;;;;48.10;21.50;;;;;;;-0.52;71.94;98347.25;106109;1274;112729;-72
2022/01/20 06:45:57;;;;;;;40.10;18.80;;;;;;;-0.54;71.88;98336.55;106103;1274;99304;-72
2022/01/20 06:48:28;;;;;;;39.40;20.80;;;;;;;-0.55;72.17;98329.09;106071;1274;107724;-71
2022/01/20 06:50:55;;;;;;;41.00;20.80;;;;;;;-0.55;72.05;98328.75;105923;1274;99172;-72
2022/01/20 06:53:23;;;;;;;41.30;18.10;;;;;;;-0.55;72.52;98317.76;106101;1274;97296;-73
2022/01/20 06:55:51;;;;;;;46.90;24.10;;;;;;;-0.56;72.27;98308.05;106104;1272;112722;-73
2022/01/20 06:58:21;;;;;;;46.10;22.40;;;;;;;-0.56;72.32;98307.71;106133;1274;99961;-72
2022/01/20 07:00:50;;;;;;;46.50;21.40;;;;;;;-0.55;72.25;98312.37;106077;1274;107632;-72
2022/01/20 07:03:20;;;;;;;47.70;23.10;;;;;;;-0.53;72.29;98315.59;105969;1274;99358;-72
2022/01/20 07:05:48;;;;;;;50.70;22.80;;;;;;;-0.50;72.16;98312.53;106222;1274;99121;-73
2022/01/20 07:08:16;;;;;;;46.70;21.20;;;;;;;-0.48;72.24;98313.84;106158;1274;112638;-72
2022/01/20 07:10:44;;;;;;;39.40;18.10;;;;;;;-0.47;72.46;98310.98;106158;1274;99242;-73
2022/01/20 07:13:12;;;;;;;40.60;20.10;;;;;;;-0.43;72.48;98318.54;106164;1274;107720;-72
2022/01/20 07:15:40;;;;;;;44.90;21.80;;;;;;;-0.44;72.32;98315.07;106124;1274;99909;-72
2022/01/20 07:18:08;;;;;;;38.20;19.00;;;;;;;-0.40;72.32;98318.05;106089;1274;99313;-72
2022/01/20 07:20:35;;;;;;;40.80;18.90;;;;;;;-0.37;72.48;98310.95;105912;1276;112522;-72
2022/01/20 07:23:03;;;;;;;44.40;20.60;;;;;;;-0.36;72.54;98305.33;106206;1274;99242;-71
2022/01/20 07:25:34;;;;;;;43.20;21.10;;;;;;;-0.33;72.52;98303.31;106069;1274;107625;-72
2022/01/20 07:28:05;;;;;;;40.70;18.70;;;;;;;-0.33;72.49;98302.61;106078;1273;99232;-72
2022/01/20 07:30:41;;;;;;;36.90;19.40;;;;;;;-0.30;72.65;98301.48;106183;1274;97384;-73
2022/01/20 07:33:11;;;;;;;40.90;19.00;;;;;;;-0.29;72.67;98301.42;106129;1274;112632;-74
2022/01/20 07:35:39;;;;;;;36.40;18.20;;;;;;;-0.23;72.59;98299.06;106090;1274;99194;-75
2022/01/20 07:38:08;;;;;;;37.80;18.60;;;;;;;-0.19;72.59;98300.65;106149;1274;107848;-75
2022/01/20 07:40:36;;;;;;;39.60;20.50;;;;;;;-0.16;72.52;98309.39;106201;1274;99329;-74
2022/01/20 07:43:06;;;;;;;42.80;18.50;;;;;;;-0.11;72.62;98307.48;106115;1274;99287;-72
2022/01/20 07:45:36;;;;;;;35.80;18.20;;;;;;;-0.09;72.57;98303.55;106119;1274;112334;-73
2022/01/20 07:48:04;;;;;;;39.80;18.40;;;;;;;-0.07;72.62;98296.66;106130;1274;97541;-74
2022/01/20 07:50:32;;;;;;;43.70;21.20;;;;;;;-0.04;72.58;98292.73;106120;1274;107764;-74
2022/01/20 07:53:03;;;;;;;36.90;18.00;;;;;;;-0.02;72.61;98299.79;106145;1273;99384;-72
2022/01/20 07:55:34;;;;;;;37.00;18.00;;;;;;;0.01;72.61;98295.30;106160;1273;99415;-72
2022/01/20 07:58:02;;;;;;;39.40;19.10;;;;;;;0.03;72.63;98296.95;106193;1274;112640;-73
2022/01/20 08:00:30;;;;;;;36.50;17.40;;;;;;;0.06;72.55;98295.11;106183;1274;99219;-73
2022/01/20 08:02:57;;;;;;;40.30;18.30;;;;;;;0.08;72.67;98296.94;106161;1274;108339;-74
2022/01/20 08:05:28;;;;;;;39.00;19.50;;;;;;;0.08;72.53;98297.98;106050;1274;97246;-74
2022/01/20 08:07:59;;;;;;;39.20;17.80;;;;;;;0.09;72.64;98297.05;106003;1274;99213;-73
2022/01/20 08:10:27;;;;;;;39.20;18.20;;;;;;;0.10;72.55;98304.15;105978;1277;112919;-75
2022/01/20 08:12:55;;;;;;;38.20;19.00;;;;;;;0.12;72.68;98302.86;106071;1274;99274;-76
2022/01/20 08:15:23;;;;;;;38.20;18.70;;;;;;;0.11;72.66;98305.31;106059;1273;107744;-74
2022/01/20 08:17:50;;;;;;;35.80;16.80;;;;;;;0.09;72.73;98309.45;105976;1274;99306;-74
2022/01/20 08:20:18;;;;;;;36.10;18.10;;;;;;;0.06;72.93;98304.70;105937;1274;99214;-74
2022/01/20 08:22:46;;;;;;;36.20;17.50;;;;;;;0.00;73.04;98306.13;105966;1274;112617;-75
2022/01/20 08:25:18;;;;;;;38.20;16.90;;;;;;;-0.04;73.16;98300.39;106016;1274;99193;-74
2022/01/20 08:27:50;;;;;;;36.80;18.40;;;;;;;-0.04;73.20;98296.23;105956;1274;107777;-74
2022/01/20 08:30:21;;;;;;;40.90;18.40;;;;;;;-0.07;73.64;98288.30;105864;1274;97287;-69
2022/01/20 08:32:51;;;;;;;41.10;20.10;;;;;;;-0.12;73.62;98284.17;106085;1274;99444;-74
2022/01/20 08:35:23;;;;;;;34.00;16.70;;;;;;;-0.13;73.52;98274.79;106085;1274;112658;-76
2022/01/20 08:37:51;;;;;;;36.80;18.50;;;;;;;-0.12;73.75;98269.67;106097;1273;97718;-73
2022/01/20 08:40:24;;;;;;;42.30;18.30;;;;;;;-0.11;73.76;98267.21;106768;1274;107710;-74
2022/01/20 08:42:55;;;;;;;39.40;19.30;;;;;;;-0.07;73.80;98272.45;106026;1274;99233;-74
2022/01/20 08:45:27;;;;;;;41.40;19.30;;;;;;;-0.04;73.97;98270.23;105983;1274;99261;-73
2022/01/20 08:47:57;;;;;;;35.40;16.50;;;;;;;-0.02;73.74;98271.90;106053;1274;112802;-74
2022/01/20 08:50:29;;;;;;;43.40;19.00;;;;;;;0.01;74.02;98272.45;106218;1274;98229;-74
2022/01/20 08:52:59;;;;;;;37.10;17.70;;;;;;;0.04;73.89;98274.45;105951;1274;107851;-73
2022/01/20 08:55:29;;;;;;;37.00;17.20;;;;;;;0.08;73.97;98274.23;106080;1274;99342;-72
2022/01/20 08:58:02;;;;;;;39.30;18.40;;;;;;;0.13;74.05;98271.76;107733;1273;97555;-74
2022/01/20 09:00:32;;;;;;;36.80;18.30;;;;;;;0.14;73.99;98272.09;106216;1274;111269;-75
2022/01/20 09:03:04;;;;;;;36.40;17.50;;;;;;;0.16;73.89;98277.59;106219;1274;99243;-75
2022/01/20 09:05:32;;;;;;;36.20;16.50;;;;;;;0.22;73.90;98280.66;106144;1274;107688;-76
2022/01/20 09:08:02;;;;;;;36.90;17.80;;;;;;;0.27;73.84;98274.68;106120;1274;99240;-75
2022/01/20 09:10:37;;;;;;;41.30;19.50;;;;;;;0.31;73.91;98267.19;106136;1274;99206;-73
2022/01/20 09:15:56;;;;;;;36.20;18.40;;;;;;;0.39;74.09;98264.22;106116;1274;99731;-72
2022/01/20 09:18:25;;;;;;;38.00;17.70;;;;;;;0.40;74.10;98269.42;106184;1273;107733;-72
2022/01/20 09:20:53;;;;;;;35.10;17.30;;;;;;;0.40;74.21;98273.06;106136;1274;99342;-75
2022/01/20 09:23:21;;;;;;;36.70;16.80;;;;;;;0.42;74.00;98271.07;106174;1274;97889;-73
2022/01/20 09:25:49;;;;;;;37.60;17.70;;;;;;;0.42;74.13;98269.28;106128;1274;111801;-74
2022/01/20 09:28:17;;;;;;;36.70;17.70;;;;;;;0.43;74.17;98267.16;106113;1274;99348;-72
2022/01/20 09:30:48;;;;;;;35.10;17.50;;;;;;;0.45;74.21;98271.10;106139;1274;107661;-71
2022/01/20 09:33:26;;;;;;;33.90;16.70;;;;;;;0.43;74.14;98269.63;106195;1274;99195;-75
2022/01/20 09:36:00;;;;;;;33.70;16.60;;;;;;;0.39;73.96;98262.48;106228;1274;99642;-73
2022/01/20 09:38:28;;;;;;;33.70;17.40;;;;;;;0.35;74.23;98262.12;106165;1274;111710;-73
2022/01/20 09:41:02;;;;;;;34.30;15.80;;;;;;;0.33;74.22;98279.64;106193;1274;99291;-75
2022/01/20 09:43:35;;;;;;;38.10;17.60;;;;;;;0.31;74.29;98280.77;106097;1274;107572;-74
2022/01/20 09:46:03;;;;;;;35.30;15.30;;;;;;;0.31;74.28;98288.11;106172;1274;99239;-76
2022/01/20 09:48:35;;;;;;;32.80;16.20;;;;;;;0.30;74.32;98281.69;106115;1275;99260;-74
2022/01/20 09:51:04;;;;;;;33.40;16.50;;;;;;;0.28;74.50;98280.72;106068;1274;112626;-73
2022/01/20 09:53:34;;;;;;;32.30;14.20;;;;;;;0.23;74.61;98268.73;106151;1274;99214;-74
2022/01/20 09:56:02;;;;;;;30.40;12.50;;;;;;;0.20;74.47;98262.78;106219;1274;107720;-72
2022/01/20 09:58:37;;;;;;;28.10;12.10;;;;;;;0.21;74.79;98255.92;106106;1274;99373;-73
2022/01/20 10:01:05;;;;;;;23.80;10.50;;;;;;;0.19;74.68;98263.36;106204;1274;96611;-73
2022/01/20 10:03:38;;;;;;;25.30;9.70;;;;;;;0.19;74.85;98265.27;107404;1274;113160;-75
2022/01/20 10:06:06;;;;;;;24.00;10.20;;;;;;;0.21;74.79;98262.02;106127;1274;99040;-74
2022/01/20 10:08:35;;;;;;;32.10;15.00;;;;;;;0.22;74.88;98259.88;106204;1274;107760;-74
2022/01/20 10:11:10;;;;;;;30.20;14.40;;;;;;;0.19;74.79;98252.17;106200;1274;99341;-74
2022/01/20 10:13:42;;;;;;;34.90;17.30;;;;;;;0.18;74.76;98245.41;106141;1274;99441;-76
2022/01/20 10:16:17;;;;;;;33.90;16.90;;;;;;;0.17;74.75;98237.29;106092;1274;111787;-75
2022/01/20 10:18:47;;;;;;;31.70;16.70;;;;;;;0.17;74.56;98233.98;106189;1274;96538;-72
2022/01/20 10:21:30;;;;;;;31.70;14.90;;;;;;;0.25;74.62;98225.23;106185;1274;107755;-73
2022/01/20 10:24:29;;;;;;;31.90;15.80;;;;;;;0.40;74.91;98224.05;106092;1274;99305;-74
2022/01/20 10:26:56;;;;;;;29.60;14.20;;;;;;;0.53;74.76;98216.68;106139;1274;99317;-74
2022/01/20 10:29:28;;;;;;;33.40;14.70;;;;;;;0.63;74.87;98220.91;106160;1274;112877;-74
2022/01/20 10:32:16;;;;;;;33.60;15.90;;;;;;;0.69;74.86;98208.60;106116;1274;99317;-73
2022/01/20 10:34:44;;;;;;;32.00;15.50;;;;;;;0.72;74.98;98190.48;106173;1274;107677;-75
2022/01/20 10:37:19;;;;;;;38.10;17.70;;;;;;;0.73;74.91;98183.30;106196;1274;99308;-74
2022/01/20 10:39:48;;;;;;;36.90;17.20;;;;;;;0.72;74.69;98176.52;106117;1274;96718;-75
2022/01/20 10:42:27;;;;;;;33.90;16.20;;;;;;;0.72;74.89;98173.59;106125;1274;112733;-74
2022/01/20 10:45:00;;;;;;;34.40;16.00;;;;;;;0.70;74.87;98171.91;106188;1274;99899;-75
2022/01/20 10:47:36;;;;;;;33.20;16.30;;;;;;;0.72;74.87;98163.77;106152;1274;107752;-75
2022/01/20 10:50:15;;;;;;;33.00;15.70;;;;;;;0.80;74.82;98149.65;106165;1274;99341;-74
2022/01/20 10:52:44;;;;;;;33.70;15.70;;;;;;;0.88;75.03;98148.38;106131;1274;97198;-77
2022/01/20 10:55:30;;;;;;;25.40;11.80;;;;;;;0.99;75.00;98143.15;106173;1274;114150;-74
2022/01/20 10:58:17;;;;;;;34.20;15.10;;;;;;;1.12;75.07;98140.10;106213;1274;99321;-72
2022/01/20 11:00:53;;;;;;;28.70;13.60;;;;;;;1.30;75.18;98130.33;106166;1273;107804;-74
2022/01/20 11:03:30;;;;;;;32.60;14.40;;;;;;;1.54;75.17;98124.52;106104;1274;99348;-73
2022/01/20 11:05:59;;;;;;;30.90;14.00;;;;;;;1.78;75.10;98118.82;106171;1274;99320;-73
2022/01/20 11:08:27;;;;;;;29.90;13.30;;;;;;;1.89;75.07;98120.13;106052;1274;113173;-74
2022/01/20 11:10:57;;;;;;;27.80;13.10;;;;;;;1.99;75.26;98116.52;106229;1274;99207;-74
2022/01/20 11:13:26;;;;;;;30.60;14.00;;;;;;;1.95;75.12;98117.89;106165;1274;107634;-74
2022/01/20 11:15:54;;;;;;;29.30;12.20;;;;;;;1.94;74.90;98116.91;106170;1273;99229;-73
2022/01/20 11:18:30;;;;;;;34.10;15.70;;;;;;;1.90;74.48;98115.36;106158;1274;99826;-74
2022/01/20 11:21:07;;;;;;;34.20;14.90;;;;;;;1.84;74.60;98113.95;106181;1274;112838;-74
2022/01/20 11:23:42;;;;;;;32.80;15.40;;;;;;;1.82;74.84;98109.19;106079;1274;99271;-75
2022/01/20 11:26:10;;;;;;;35.10;15.70;;;;;;;1.76;74.88;98098.46;106209;1273;107733;-73
2022/01/20 11:28:38;;;;;;;31.20;14.60;;;;;;;1.74;74.63;98094.88;105992;1277;99230;-72
2022/01/20 11:31:09;;;;;;;32.60;14.60;;;;;;;1.72;74.41;98091.66;106019;1274;99269;-73
2022/01/20 11:33:40;;;;;;;32.70;14.40;;;;;;;1.77;74.53;98089.83;106144;1274;112618;-75
2022/01/20 11:36:20;;;;;;;34.50;16.20;;;;;;;1.86;74.78;98076.41;106138;1274;99288;-71
2022/01/20 11:39:09;;;;;;;33.90;14.90;;;;;;;1.94;74.36;98080.91;106097;1274;107816;-75
2022/01/20 11:41:46;;;;;;;31.70;13.20;;;;;;;2.00;74.70;98073.38;106135;1274;99208;-74
2022/01/20 11:44:18;;;;;;;32.30;14.50;;;;;;;2.02;74.56;98073.65;106177;1274;97290;-76
2022/01/20 11:46:50;;;;;;;28.90;14.20;;;;;;;2.00;74.52;98068.85;106130;1274;112641;-77
2022/01/20 11:49:33;;;;;;;31.10;14.50;;;;;;;2.13;74.60;98058.34;106173;1274;97381;-78
2022/01/20 11:52:03;;;;;;;31.10;14.50;;;;;;;2.22;74.31;98051.24;106022;1274;107773;-75
2022/01/20 11:54:45;;;;;;;30.40;13.50;;;;;;;2.12;73.88;98045.63;105936;1274;99226;-74
2022/01/20 11:57:18;;;;;;;;;;;;;;;2.11;74.24;98044.00;105962;1274;98364;-72
2022/01/20 11:59:59;;;;;;;29.30;12.90;;;;;;;1.98;74.05;98035.58;106036;1274;112758;-72
2022/01/20 12:02:39;;;;;;;29.30;14.10;;;;;;;1.90;74.07;98029.86;106015;1274;99321;-73
2022/01/20 12:05:21;;;;;;;28.60;13.40;;;;;;;1.76;73.80;98023.96;106030;1274;107814;-74
2022/01/20 12:07:49;;;;;;;30.10;13.50;;;;;;;1.67;73.73;98029.02;105998;1274;97293;-73
2022/01/20 12:10:28;;;;;;;28.80;13.60;;;;;;;1.65;74.00;98017.39;105962;1274;99295;-73
2022/01/20 12:13:16;;;;;;;26.90;13.20;;;;;;;1.65;73.93;98012.52;106134;1274;112560;-75
2022/01/20 12:15:53;;;;;;;32.20;13.70;;;;;;;1.56;73.79;98006.52;106134;1274;99241;-74
2022/01/20 12:18:21;;;;;;;28.50;14.30;;;;;;;1.47;73.87;97992.10;105963;1274;108866;-74
2022/01/20 12:20:49;;;;;;;26.40;12.80;;;;;;;1.40;73.62;97991.63;106129;1274;99346;-75
2022/01/20 12:23:20;;;;;;;33.20;14.10;;;;;;;1.31;73.74;97983.69;106440;1274;99226;-75
2022/01/20 12:25:48;;;;;;;29.50;13.60;;;;;;;1.26;73.72;97975.21;106170;1274;112791;-75
2022/01/20 12:28:19;;;;;;;28.30;14.30;;;;;;;1.17;73.52;97972.57;106186;1274;99220;-75
2022/01/20 12:30:51;;;;;;;29.40;13.60;;;;;;;1.07;73.75;97955.23;106134;1274;107555;-72
2022/01/20 12:33:27;;;;;;;30.40;14.90;;;;;;;1.05;73.65;97933.52;106055;1274;99298;-73